Mt New Conquest — V7GG4 — position and weather

sailwx.info

Track history (hours):
 
Tides and Currents Weather Stations Pressure Air Temp Water Temp Dewpoint Dewpoint Depression Visibility Wind Speed Wind Dir Waves Ship Positions

Mt New Conquest

Last reported at 2015-May-05 09:21 UTC. Time now 2015-May-05 17:19 UTC.
Position N 01°55' E 102°18'.

Length 228 m.

MMSI: 538002089.

Date/timePositionNaut miles runAvg speedWind from/ knotsBaromVisibWave heightAir tempDewpointWater temp
2015-May-05 09:21N 01°55' E 102°18'1316.3
2015-May-05 08:33N 01°50' E 102°30'1616.6
2015-May-05 07:33N 01°43' E 102°45'7113.9
2015-May-05 02:27N 01°11' E 103°49'7 8.2
2015-May-05 01:33N 01°15' E 103°54'1 0.9
2015-May-05 00:24N 01°16' E 103°55'0 0.0
2015-May-04 23:30N 01°16' E 103°55'0 0.0
2015-May-04 22:30N 01°16' E 103°55'0 0.0
2015-May-04 21:31N 01°16' E 103°55'0 0.0
2015-May-04 20:21N 01°16' E 103°55'0 0.0
2015-May-04 19:18N 01°16' E 103°55'0 0.0
2015-May-04 18:24N 01°16' E 103°55'0 0.0
2015-May-04 17:24N 01°16' E 103°55'0 0.2
2015-May-04 16:30N 01°16' E 103°55'0 0.1
2015-May-04 15:06N 01°16' E 103°55'0 0.0
2015-May-04 14:18N 01°16' E 103°55'0 0.0
2015-May-04 13:12N 01°16' E 103°55'0 0.0
2015-May-04 12:24N 01°16' E 103°55'0 0.0
2015-May-04 11:24N 01°16' E 103°55'0 0.0
2015-May-04 10:30N 01°16' E 103°55'0 0.0
2015-May-04 09:33N 01°16' E 103°55'0 0.0
2015-May-04 08:30N 01°16' E 103°55'0 0.2
2015-May-04 07:12N 01°16' E 103°55'0 0.1
2015-May-04 06:30N 01°16' E 103°55'5 4.7
2015-May-04 05:32N 01°13' E 103°52'8 8.5
2015-May-04 04:33N 01°15' E 103°44'3 0.1
2015-May-03 06:04N 01°14' E 103°41'0 0.0
2015-May-03 00:11N 01°14' E 103°41'1 1.2
2015-May-02 23:24N 01°14' E 103°42'5 5.6
2015-May-02 22:33N 01°15' E 103°47'3 2.8
2015-May-02 21:30N 01°13' E 103°49'0 0.1
2015-May-02 20:27N 01°13' E 103°49'0 0.1
2015-May-02 19:18N 01°13' E 103°49'0 0.1
2015-May-02 18:18N 01°13' E 103°49'0 0.1
2015-May-02 17:27N 01°13' E 103°49'0 0.1
2015-May-02 16:18N 01°13' E 103°48'0 0.1
2015-May-02 13:30N 01°13' E 103°48'0 0.0
2015-May-02 12:12N 01°13' E 103°48'0 0.0
2015-May-02 10:30N 01°13' E 103°48'0 0.2
2015-May-02 09:12N 01°13' E 103°49'0 0.0
2015-May-02 08:24N 01°13' E 103°49'0 0.0
2015-May-02 07:30N 01°13' E 103°49'0 0.0
2015-May-02 06:30N 01°13' E 103°49'0 0.0
2015-May-02 05:33N 01°13' E 103°49'0 0.1
2015-May-02 03:24N 01°13' E 103°48'0 0.1
2015-May-02 02:30N 01°13' E 103°48'0 0.1
2015-May-02 01:30N 01°13' E 103°48'0 0.1
2015-May-02 00:30N 01°13' E 103°48'0 0.1
2015-May-01 23:24N 01°13' E 103°48'0 0.1
2015-May-01 22:33N 01°13' E 103°48'0 0.0
2015-May-01 20:30N 01°13' E 103°48'0 0.0
2015-May-01 19:30N 01°13' E 103°48'0 0.0
2015-May-01 18:30N 01°13' E 103°48'0 0.1
2015-May-01 17:30N 01°13' E 103°48'0 0.1
2015-May-01 16:33N 01°13' E 103°48'0 0.1
2015-May-01 15:30N 01°13' E 103°48'0 0.0
2015-May-01 14:18N 01°13' E 103°48'0 0.0
2015-May-01 13:30N 01°13' E 103°48'0 0.1
2015-May-01 12:24N 01°13' E 103°48'0 0.1
2015-May-01 11:24N 01°13' E 103°48'0 0.1
2015-May-01 08:30N 01°13' E 103°48'0 0.0
2015-May-01 06:33N 01°13' E 103°48'0 0.0
2015-May-01 04:30N 01°13' E 103°48'0 0.1
2015-May-01 03:18N 01°13' E 103°48'0 0.1
2015-May-01 02:18N 01°13' E 103°48'0 0.1
2015-May-01 01:30N 01°13' E 103°48'0 0.0
2015-May-01 00:18N 01°13' E 103°48'0 0.0
2015-Apr-30 23:12N 01°13' E 103°48'0 0.0
2015-Apr-30 22:33N 01°13' E 103°48'0 0.2
2015-Apr-30 21:27N 01°13' E 103°48'0 0.1
2015-Apr-30 20:33N 01°13' E 103°48'0 0.1
2015-Apr-30 19:12N 01°13' E 103°48'0 0.1
2015-Apr-30 18:24N 01°13' E 103°48'0 0.1
2015-Apr-30 17:18N 01°13' E 103°48'0 0.1
2015-Apr-30 16:30N 01°13' E 103°48'0 0.0
2015-Apr-30 15:33N 01°13' E 103°48'0 0.0
2015-Apr-30 12:10N 01°13' E 103°48'0 0.0
2015-Apr-30 11:16N 01°13' E 103°48'0 0.1
2015-Apr-30 10:10N 01°13' E 103°48'0 0.2
2015-Apr-30 09:31N 01°13' E 103°48'0 0.1
2015-Apr-30 08:28N 01°13' E 103°48'0 0.0
2015-Apr-30 07:28N 01°13' E 103°48'0 0.0
2015-Apr-30 06:22N 01°13' E 103°48'0 0.0
2015-Apr-30 04:22N 01°13' E 103°48'0 0.0
2015-Apr-30 03:31N 01°13' E 103°48'0 0.1
2015-Apr-30 02:25N 01°13' E 103°48'0 0.1
2015-Apr-30 01:22N 01°13' E 103°48'0 0.0
2015-Apr-30 00:31N 01°13' E 103°48'0 0.1
2015-Apr-29 23:28N 01°13' E 103°48'0 0.0
2015-Apr-29 22:22N 01°13' E 103°48'0 0.1
2015-Apr-29 21:28N 01°13' E 103°48'0 0.1
2015-Apr-29 20:22N 01°13' E 103°48'0 0.1
2015-Apr-29 19:28N 01°13' E 103°48'0 0.0
2015-Apr-29 17:28N 01°13' E 103°48'0 0.0
2015-Apr-29 16:22N 01°13' E 103°48'0 0.0
2015-Apr-29 15:04N 01°13' E 103°48'0 0.1
2015-Apr-29 14:10N 01°13' E 103°48'0 0.1
2015-Apr-29 13:28N 01°13' E 103°48'0 0.1
2015-Apr-29 12:28N 01°13' E 103°48'2 2.4
2015-Apr-29 11:33N 01°14' E 103°46'65 7.9
2015-Apr-29 03:19N 01°39' E 102°46'17 9.6
2015-Apr-29 01:33N 01°46' E 102°31'1210.9
2015-Apr-29 00:25N 01°51' E 102°19'910.9
2015-Apr-28 23:32N 01°56' E 102°11'1210.8
2015-Apr-28 22:24N 02°04' E 102°02'4911.3
2015-Apr-28 18:04N 02°35' E 101°24'611.3
2015-Apr-28 17:30N 02°38' E 101°18'1111.3
2015-Apr-28 16:30N 02°43' E 101°08'1310.8
2015-Apr-28 15:16N 02°51' E 100°57'911.2
2015-Apr-28 14:28N 02°57' E 100°51'3411.2
2015-Apr-28 11:26N 03°20' E 100°26'  
Track history (hours):
 
Tides and Currents Weather Stations Pressure Air Temp Water Temp Dewpoint Dewpoint Depression Visibility Wind Speed Wind Dir Waves Ship Positions

Mt New Conquest

Last reported at 2015-May-05 09:21 UTC. Time now 2015-May-05 17:19 UTC.
Position N 01°55' E 102°18'.

Length 228 m.

MMSI: 538002089.

Date/timePositionNaut miles runAvg speedWind from/ knotsBaromVisibWave heightAir tempDewpointWater temp
2015-May-05 09:21N 01°55' E 102°18'1316.3
2015-May-05 08:33N 01°50' E 102°30'1616.6
2015-May-05 07:33N 01°43' E 102°45'7113.9
2015-May-05 02:27N 01°11' E 103°49'7 8.2
2015-May-05 01:33N 01°15' E 103°54'1 0.9
2015-May-05 00:24N 01°16' E 103°55'0 0.0
2015-May-04 23:30N 01°16' E 103°55'0 0.0
2015-May-04 22:30N 01°16' E 103°55'0 0.0
2015-May-04 21:31N 01°16' E 103°55'0 0.0
2015-May-04 20:21N 01°16' E 103°55'0 0.0
2015-May-04 19:18N 01°16' E 103°55'0 0.0
2015-May-04 18:24N 01°16' E 103°55'0 0.0
2015-May-04 17:24N 01°16' E 103°55'0 0.2
2015-May-04 16:30N 01°16' E 103°55'0 0.1
2015-May-04 15:06N 01°16' E 103°55'0 0.0
2015-May-04 14:18N 01°16' E 103°55'0 0.0
2015-May-04 13:12N 01°16' E 103°55'0 0.0
2015-May-04 12:24N 01°16' E 103°55'0 0.0
2015-May-04 11:24N 01°16' E 103°55'0 0.0
2015-May-04 10:30N 01°16' E 103°55'0 0.0
2015-May-04 09:33N 01°16' E 103°55'0 0.0
2015-May-04 08:30N 01°16' E 103°55'0 0.2
2015-May-04 07:12N 01°16' E 103°55'0 0.1
2015-May-04 06:30N 01°16' E 103°55'5 4.7
2015-May-04 05:32N 01°13' E 103°52'8 8.5
2015-May-04 04:33N 01°15' E 103°44'3 0.1
2015-May-03 06:04N 01°14' E 103°41'0 0.0
2015-May-03 00:11N 01°14' E 103°41'1 1.2
2015-May-02 23:24N 01°14' E 103°42'5 5.6
2015-May-02 22:33N 01°15' E 103°47'3 2.8
2015-May-02 21:30N 01°13' E 103°49'0 0.1
2015-May-02 20:27N 01°13' E 103°49'0 0.1
2015-May-02 19:18N 01°13' E 103°49'0 0.1
2015-May-02 18:18N 01°13' E 103°49'0 0.1
2015-May-02 17:27N 01°13' E 103°49'0 0.1
2015-May-02 16:18N 01°13' E 103°48'0 0.1
2015-May-02 13:30N 01°13' E 103°48'0 0.0
2015-May-02 12:12N 01°13' E 103°48'0 0.0
2015-May-02 10:30N 01°13' E 103°48'0 0.2
2015-May-02 09:12N 01°13' E 103°49'0 0.0
2015-May-02 08:24N 01°13' E 103°49'0 0.0
2015-May-02 07:30N 01°13' E 103°49'0 0.0
2015-May-02 06:30N 01°13' E 103°49'0 0.0
2015-May-02 05:33N 01°13' E 103°49'0 0.1
2015-May-02 03:24N 01°13' E 103°48'0 0.1
2015-May-02 02:30N 01°13' E 103°48'0 0.1
2015-May-02 01:30N 01°13' E 103°48'0 0.1
2015-May-02 00:30N 01°13' E 103°48'0 0.1
2015-May-01 23:24N 01°13' E 103°48'0 0.1
2015-May-01 22:33N 01°13' E 103°48'0 0.0
2015-May-01 20:30N 01°13' E 103°48'0 0.0
2015-May-01 19:30N 01°13' E 103°48'0 0.0
2015-May-01 18:30N 01°13' E 103°48'0 0.1
2015-May-01 17:30N 01°13' E 103°48'0 0.1
2015-May-01 16:33N 01°13' E 103°48'0 0.1
2015-May-01 15:30N 01°13' E 103°48'0 0.0
2015-May-01 14:18N 01°13' E 103°48'0 0.0
2015-May-01 13:30N 01°13' E 103°48'0 0.1
2015-May-01 12:24N 01°13' E 103°48'0 0.1
2015-May-01 11:24N 01°13' E 103°48'0 0.1
2015-May-01 08:30N 01°13' E 103°48'0 0.0
2015-May-01 06:33N 01°13' E 103°48'0 0.0
2015-May-01 04:30N 01°13' E 103°48'0 0.1
2015-May-01 03:18N 01°13' E 103°48'0 0.1
2015-May-01 02:18N 01°13' E 103°48'0 0.1
2015-May-01 01:30N 01°13' E 103°48'0 0.0
2015-May-01 00:18N 01°13' E 103°48'0 0.0
2015-Apr-30 23:12N 01°13' E 103°48'0 0.0
2015-Apr-30 22:33N 01°13' E 103°48'0 0.2
2015-Apr-30 21:27N 01°13' E 103°48'0 0.1
2015-Apr-30 20:33N 01°13' E 103°48'0 0.1
2015-Apr-30 19:12N 01°13' E 103°48'0 0.1
2015-Apr-30 18:24N 01°13' E 103°48'0 0.1
2015-Apr-30 17:18N 01°13' E 103°48'0 0.1
2015-Apr-30 16:30N 01°13' E 103°48'0 0.0
2015-Apr-30 15:33N 01°13' E 103°48'0 0.0
2015-Apr-30 12:10N 01°13' E 103°48'0 0.0
2015-Apr-30 11:16N 01°13' E 103°48'0 0.1
2015-Apr-30 10:10N 01°13' E 103°48'0 0.2
2015-Apr-30 09:31N 01°13' E 103°48'0 0.1
2015-Apr-30 08:28N 01°13' E 103°48'0 0.0
2015-Apr-30 07:28N 01°13' E 103°48'0 0.0
2015-Apr-30 06:22N 01°13' E 103°48'0 0.0
2015-Apr-30 04:22N 01°13' E 103°48'0 0.0
2015-Apr-30 03:31N 01°13' E 103°48'0 0.1
2015-Apr-30 02:25N 01°13' E 103°48'0 0.1
2015-Apr-30 01:22N 01°13' E 103°48'0 0.0
2015-Apr-30 00:31N 01°13' E 103°48'0 0.1
2015-Apr-29 23:28N 01°13' E 103°48'0 0.0
2015-Apr-29 22:22N 01°13' E 103°48'0 0.1
2015-Apr-29 21:28N 01°13' E 103°48'0 0.1
2015-Apr-29 20:22N 01°13' E 103°48'0 0.1
2015-Apr-29 19:28N 01°13' E 103°48'0 0.0
2015-Apr-29 17:28N 01°13' E 103°48'0 0.0
2015-Apr-29 16:22N 01°13' E 103°48'0 0.0
2015-Apr-29 15:04N 01°13' E 103°48'0 0.1
2015-Apr-29 14:10N 01°13' E 103°48'0 0.1
2015-Apr-29 13:28N 01°13' E 103°48'0 0.1
2015-Apr-29 12:28N 01°13' E 103°48'2 2.4
2015-Apr-29 11:33N 01°14' E 103°46'65 7.9
2015-Apr-29 03:19N 01°39' E 102°46'17 9.6
2015-Apr-29 01:33N 01°46' E 102°31'1210.9
2015-Apr-29 00:25N 01°51' E 102°19'910.9
2015-Apr-28 23:32N 01°56' E 102°11'1210.8
2015-Apr-28 22:24N 02°04' E 102°02'4911.3
2015-Apr-28 18:04N 02°35' E 101°24'611.3
2015-Apr-28 17:30N 02°38' E 101°18'1111.3
2015-Apr-28 16:30N 02°43' E 101°08'1310.8
2015-Apr-28 15:16N 02°51' E 100°57'911.2
2015-Apr-28 14:28N 02°57' E 100°51'3411.2
2015-Apr-28 11:26N 03°20' E 100°26'  

Dump ship's entire track history